sensor_id;sensor_type;location;lat;lon;timestamp;P1;durP1;ratioP1;P2;durP2;ratioP2
67749;SDS011;54550;48.838;8.828;2022-08-01T00:00:23;6.40;;;1.97;;
67749;SDS011;54550;48.838;8.828;2022-08-01T00:02:49;2.97;;;2.17;;
67749;SDS011;54550;48.838;8.828;2022-08-01T00:05:14;2.30;;;1.47;;
67749;SDS011;54550;48.838;8.828;2022-08-01T00:07:40;2.50;;;1.77;;
67749;SDS011;54550;48.838;8.828;2022-08-01T00:10:07;3.47;;;1.97;;
67749;SDS011;54550;48.838;8.828;2022-08-01T00:12:34;2.87;;;2.13;;
67749;SDS011;54550;48.838;8.828;2022-08-01T00:15:00;3.57;;;2.10;;
67749;SDS011;54550;48.838;8.828;2022-08-01T00:17:26;2.83;;;2.03;;
67749;SDS011;54550;48.838;8.828;2022-08-01T00:19:51;3.43;;;2.40;;
67749;SDS011;54550;48.838;8.828;2022-08-01T00:22:17;3.10;;;2.13;;
67749;SDS011;54550;48.838;8.828;2022-08-01T00:24:42;4.30;;;2.20;;
67749;SDS011;54550;48.838;8.828;2022-08-01T00:27:08;6.43;;;2.00;;
67749;SDS011;54550;48.838;8.828;2022-08-01T00:29:33;3.03;;;2.20;;
67749;SDS011;54550;48.838;8.828;2022-08-01T00:31:59;2.87;;;2.03;;
67749;SDS011;54550;48.838;8.828;2022-08-01T00:34:24;2.40;;;2.20;;
67749;SDS011;54550;48.838;8.828;2022-08-01T00:36:50;4.20;;;2.37;;
67749;SDS011;54550;48.838;8.828;2022-08-01T00:39:16;3.60;;;2.37;;
67749;SDS011;54550;48.838;8.828;2022-08-01T00:41:41;3.13;;;2.40;;
67749;SDS011;54550;48.838;8.828;2022-08-01T00:44:07;3.67;;;2.07;;
67749;SDS011;54550;48.838;8.828;2022-08-01T00:46:32;4.93;;;1.60;;
67749;SDS011;54550;48.838;8.828;2022-08-01T00:48:59;4.53;;;2.00;;
67749;SDS011;54550;48.838;8.828;2022-08-01T00:51:27;2.67;;;2.23;;
67749;SDS011;54550;48.838;8.828;2022-08-01T00:53:53;4.73;;;2.80;;
67749;SDS011;54550;48.838;8.828;2022-08-01T00:56:20;2.60;;;2.40;;
67749;SDS011;54550;48.838;8.828;2022-08-01T00:58:48;2.73;;;2.30;;
67749;SDS011;54550;48.838;8.828;2022-08-01T01:01:14;5.03;;;2.33;;
67749;SDS011;54550;48.838;8.828;2022-08-01T01:03:40;3.67;;;2.53;;
67749;SDS011;54550;48.838;8.828;2022-08-01T01:08:43;2.00;;;1.90;;
67749;SDS011;54550;48.838;8.828;2022-08-01T01:11:21;3.50;;;2.53;;
67749;SDS011;54550;48.838;8.828;2022-08-01T01:13:54;2.47;;;2.13;;
67749;SDS011;54550;48.838;8.828;2022-08-01T01:16:26;3.53;;;2.30;;
67749;SDS011;54550;48.838;8.828;2022-08-01T01:18:56;2.23;;;1.93;;
67749;SDS011;54550;48.838;8.828;2022-08-01T01:24:20;6.63;;;2.27;;
67749;SDS011;54550;48.838;8.828;2022-08-01T01:27:18;4.20;;;2.73;;
67749;SDS011;54550;48.838;8.828;2022-08-01T01:29:54;7.47;;;2.33;;
67749;SDS011;54550;48.838;8.828;2022-08-01T01:32:31;2.40;;;1.90;;
67749;SDS011;54550;48.838;8.828;2022-08-01T01:35:02;2.13;;;1.70;;
67749;SDS011;54550;48.838;8.828;2022-08-01T01:37:48;4.13;;;2.33;;
67749;SDS011;54550;48.838;8.828;2022-08-01T01:40:18;3.90;;;2.37;;
67749;SDS011;54550;48.838;8.828;2022-08-01T01:42:46;3.53;;;2.60;;
67749;SDS011;54550;48.838;8.828;2022-08-01T01:45:13;2.80;;;1.73;;
67749;SDS011;54550;48.838;8.828;2022-08-01T01:47:39;4.57;;;2.37;;
67749;SDS011;54550;48.838;8.828;2022-08-01T01:50:07;3.50;;;2.33;;
67749;SDS011;54550;48.838;8.828;2022-08-01T01:52:37;2.60;;;2.40;;
67749;SDS011;54550;48.838;8.828;2022-08-01T01:55:05;2.63;;;2.43;;
67749;SDS011;54550;48.838;8.828;2022-08-01T01:57:35;3.50;;;2.30;;
67749;SDS011;54550;48.838;8.828;2022-08-01T02:00:03;5.63;;;2.13;;
67749;SDS011;54550;48.838;8.828;2022-08-01T02:02:31;2.77;;;2.10;;
67749;SDS011;54550;48.838;8.828;2022-08-01T02:04:58;5.10;;;2.50;;
67749;SDS011;54550;48.838;8.828;2022-08-01T02:07:25;2.70;;;2.40;;
67749;SDS011;54550;48.838;8.828;2022-08-01T02:09:52;3.33;;;2.20;;
67749;SDS011;54550;48.838;8.828;2022-08-01T02:12:19;2.50;;;2.30;;
67749;SDS011;54550;48.838;8.828;2022-08-01T02:14:46;4.53;;;1.97;;
67749;SDS011;54550;48.838;8.828;2022-08-01T02:17:15;11.10;;;2.10;;
67749;SDS011;54550;48.838;8.828;2022-08-01T02:19:42;7.17;;;2.10;;
67749;SDS011;54550;48.838;8.828;2022-08-01T02:22:12;3.30;;;2.13;;
67749;SDS011;54550;48.838;8.828;2022-08-01T02:24:49;3.10;;;2.53;;
67749;SDS011;54550;48.838;8.828;2022-08-01T02:27:21;4.13;;;2.60;;
67749;SDS011;54550;48.838;8.828;2022-08-01T02:30:01;2.63;;;2.37;;
67749;SDS011;54550;48.838;8.828;2022-08-01T02:32:39;10.00;;;2.40;;
67749;SDS011;54550;48.838;8.828;2022-08-01T02:35:13;1.80;;;1.70;;
67749;SDS011;54550;48.838;8.828;2022-08-01T02:37:45;1.83;;;1.60;;
67749;SDS011;54550;48.838;8.828;2022-08-01T02:40:12;7.10;;;1.67;;
67749;SDS011;54550;48.838;8.828;2022-08-01T02:42:42;2.73;;;2.10;;
67749;SDS011;54550;48.838;8.828;2022-08-01T02:45:10;3.73;;;2.10;;
67749;SDS011;54550;48.838;8.828;2022-08-01T02:47:37;2.10;;;1.80;;
67749;SDS011;54550;48.838;8.828;2022-08-01T02:50:06;2.60;;;2.30;;
67749;SDS011;54550;48.838;8.828;2022-08-01T02:52:34;2.17;;;1.97;;
67749;SDS011;54550;48.838;8.828;2022-08-01T02:55:01;2.33;;;2.07;;
67749;SDS011;54550;48.838;8.828;2022-08-01T02:57:27;2.40;;;1.70;;
67749;SDS011;54550;48.838;8.828;2022-08-01T02:59:54;2.00;;;1.87;;
67749;SDS011;54550;48.838;8.828;2022-08-01T03:02:22;3.03;;;2.30;;
67749;SDS011;54550;48.838;8.828;2022-08-01T03:04:49;1.87;;;1.63;;
67749;SDS011;54550;48.838;8.828;2022-08-01T03:07:16;2.70;;;2.00;;
67749;SDS011;54550;48.838;8.828;2022-08-01T03:09:44;1.97;;;1.87;;
67749;SDS011;54550;48.838;8.828;2022-08-01T03:12:16;3.53;;;1.70;;
67749;SDS011;54550;48.838;8.828;2022-08-01T03:14:44;3.77;;;1.70;;
67749;SDS011;54550;48.838;8.828;2022-08-01T03:17:12;2.53;;;1.90;;
67749;SDS011;54550;48.838;8.828;2022-08-01T03:19:41;3.33;;;2.30;;
67749;SDS011;54550;48.838;8.828;2022-08-01T03:22:11;2.70;;;2.50;;
67749;SDS011;54550;48.838;8.828;2022-08-01T03:24:39;3.03;;;2.00;;
67749;SDS011;54550;48.838;8.828;2022-08-01T03:27:06;2.23;;;1.80;;
67749;SDS011;54550;48.838;8.828;2022-08-01T03:29:34;1.50;;;1.40;;
67749;SDS011;54550;48.838;8.828;2022-08-01T03:32:00;2.07;;;1.63;;
67749;SDS011;54550;48.838;8.828;2022-08-01T03:34:27;3.13;;;2.37;;
67749;SDS011;54550;48.838;8.828;2022-08-01T03:37:05;3.30;;;1.93;;
67749;SDS011;54550;48.838;8.828;2022-08-01T03:39:40;2.40;;;2.20;;
67749;SDS011;54550;48.838;8.828;2022-08-01T03:42:30;1.97;;;1.77;;
67749;SDS011;54550;48.838;8.828;2022-08-01T03:44:59;4.47;;;2.23;;
67749;SDS011;54550;48.838;8.828;2022-08-01T03:47:32;3.90;;;2.27;;
67749;SDS011;54550;48.838;8.828;2022-08-01T03:50:00;12.30;;;2.00;;
67749;SDS011;54550;48.838;8.828;2022-08-01T03:52:29;2.10;;;1.90;;
67749;SDS011;54550;48.838;8.828;2022-08-01T03:54:57;2.10;;;1.90;;
67749;SDS011;54550;48.838;8.828;2022-08-01T03:57:27;2.97;;;2.50;;
67749;SDS011;54550;48.838;8.828;2022-08-01T03:59:55;2.70;;;2.43;;
67749;SDS011;54550;48.838;8.828;2022-08-01T04:02:22;2.73;;;2.30;;
67749;SDS011;54550;48.838;8.828;2022-08-01T04:04:48;2.63;;;2.00;;
67749;SDS011;54550;48.838;8.828;2022-08-01T04:07:21;3.63;;;2.10;;
67749;SDS011;54550;48.838;8.828;2022-08-01T04:09:48;5.10;;;2.50;;
67749;SDS011;54550;48.838;8.828;2022-08-01T04:12:13;2.43;;;2.10;;
67749;SDS011;54550;48.838;8.828;2022-08-01T04:14:39;3.37;;;2.40;;
67749;SDS011;54550;48.838;8.828;2022-08-01T04:17:04;2.30;;;2.03;;
67749;SDS011;54550;48.838;8.828;2022-08-01T04:19:30;5.63;;;2.50;;
67749;SDS011;54550;48.838;8.828;2022-08-01T04:21:55;3.80;;;2.43;;
67749;SDS011;54550;48.838;8.828;2022-08-01T04:24:21;6.40;;;2.07;;
67749;SDS011;54550;48.838;8.828;2022-08-01T04:26:49;2.60;;;2.40;;
67749;SDS011;54550;48.838;8.828;2022-08-01T04:29:16;4.20;;;2.07;;
67749;SDS011;54550;48.838;8.828;2022-08-01T04:31:45;2.87;;;2.50;;
67749;SDS011;54550;48.838;8.828;2022-08-01T04:34:14;3.37;;;2.50;;
67749;SDS011;54550;48.838;8.828;2022-08-01T04:36:42;2.80;;;2.17;;
67749;SDS011;54550;48.838;8.828;2022-08-01T04:39:09;5.90;;;2.30;;
67749;SDS011;54550;48.838;8.828;2022-08-01T04:41:36;2.50;;;2.30;;
67749;SDS011;54550;48.838;8.828;2022-08-01T04:44:02;2.17;;;1.90;;
67749;SDS011;54550;48.838;8.828;2022-08-01T04:46:29;5.67;;;2.17;;
67749;SDS011;54550;48.838;8.828;2022-08-01T04:48:57;2.87;;;2.43;;
67749;SDS011;54550;48.838;8.828;2022-08-01T04:51:23;2.20;;;2.00;;
67749;SDS011;54550;48.838;8.828;2022-08-01T04:53:49;3.23;;;2.07;;
67749;SDS011;54550;48.838;8.828;2022-08-01T04:56:16;2.63;;;2.40;;
67749;SDS011;54550;48.838;8.828;2022-08-01T04:58:42;4.20;;;2.73;;
67749;SDS011;54550;48.838;8.828;2022-08-01T05:01:08;2.30;;;2.10;;
67749;SDS011;54550;48.838;8.828;2022-08-01T05:03:34;4.80;;;2.40;;
67749;SDS011;54550;48.838;8.828;2022-08-01T05:06:00;8.43;;;2.37;;
67749;SDS011;54550;48.838;8.828;2022-08-01T05:08:25;2.50;;;2.27;;
67749;SDS011;54550;48.838;8.828;2022-08-01T05:10:51;8.80;;;2.47;;
67749;SDS011;54550;48.838;8.828;2022-08-01T05:13:17;7.63;;;2.80;;
67749;SDS011;54550;48.838;8.828;2022-08-01T05:15:43;2.97;;;2.53;;
67749;SDS011;54550;48.838;8.828;2022-08-01T05:18:09;4.40;;;2.53;;
67749;SDS011;54550;48.838;8.828;2022-08-01T05:20:34;5.50;;;2.60;;
67749;SDS011;54550;48.838;8.828;2022-08-01T05:23:00;3.70;;;2.33;;
67749;SDS011;54550;48.838;8.828;2022-08-01T05:25:26;2.50;;;2.07;;
67749;SDS011;54550;48.838;8.828;2022-08-01T05:27:51;4.00;;;2.60;;
67749;SDS011;54550;48.838;8.828;2022-08-01T05:30:16;2.60;;;1.70;;
67749;SDS011;54550;48.838;8.828;2022-08-01T05:32:42;2.90;;;1.77;;
67749;SDS011;54550;48.838;8.828;2022-08-01T05:35:08;1.57;;;1.40;;
67749;SDS011;54550;48.838;8.828;2022-08-01T05:37:34;1.70;;;1.50;;
67749;SDS011;54550;48.838;8.828;2022-08-01T05:39:59;6.80;;;2.40;;
67749;SDS011;54550;48.838;8.828;2022-08-01T05:42:25;2.13;;;1.60;;
67749;SDS011;54550;48.838;8.828;2022-08-01T05:44:51;10.13;;;2.10;;
67749;SDS011;54550;48.838;8.828;2022-08-01T05:47:17;5.60;;;2.50;;
67749;SDS011;54550;48.838;8.828;2022-08-01T05:49:43;3.60;;;1.80;;
67749;SDS011;54550;48.838;8.828;2022-08-01T05:52:09;2.17;;;2.03;;
67749;SDS011;54550;48.838;8.828;2022-08-01T05:54:35;7.63;;;2.33;;
67749;SDS011;54550;48.838;8.828;2022-08-01T05:57:00;10.00;;;1.80;;
67749;SDS011;54550;48.838;8.828;2022-08-01T05:59:27;4.20;;;1.53;;
67749;SDS011;54550;48.838;8.828;2022-08-01T06:01:53;3.17;;;1.57;;
67749;SDS011;54550;48.838;8.828;2022-08-01T06:04:19;9.80;;;1.60;;
67749;SDS011;54550;48.838;8.828;2022-08-01T06:06:44;2.50;;;1.70;;
67749;SDS011;54550;48.838;8.828;2022-08-01T06:09:10;5.83;;;1.80;;
67749;SDS011;54550;48.838;8.828;2022-08-01T06:11:35;3.43;;;2.20;;
67749;SDS011;54550;48.838;8.828;2022-08-01T06:14:01;3.00;;;1.50;;
67749;SDS011;54550;48.838;8.828;2022-08-01T06:16:26;3.80;;;1.73;;
67749;SDS011;54550;48.838;8.828;2022-08-01T06:18:52;5.80;;;1.83;;
67749;SDS011;54550;48.838;8.828;2022-08-01T06:21:18;2.47;;;1.60;;
67749;SDS011;54550;48.838;8.828;2022-08-01T06:23:43;2.43;;;1.73;;
67749;SDS011;54550;48.838;8.828;2022-08-01T06:26:09;2.60;;;1.30;;
67749;SDS011;54550;48.838;8.828;2022-08-01T06:28:35;1.23;;;1.10;;
67749;SDS011;54550;48.838;8.828;2022-08-01T06:31:01;1.87;;;1.20;;
67749;SDS011;54550;48.838;8.828;2022-08-01T06:33:26;2.90;;;1.00;;
67749;SDS011;54550;48.838;8.828;2022-08-01T06:35:52;1.93;;;1.70;;
67749;SDS011;54550;48.838;8.828;2022-08-01T06:38:18;1.47;;;1.37;;
67749;SDS011;54550;48.838;8.828;2022-08-01T06:40:43;3.17;;;1.17;;
67749;SDS011;54550;48.838;8.828;2022-08-01T06:43:09;1.60;;;1.03;;
67749;SDS011;54550;48.838;8.828;2022-08-01T06:45:36;4.93;;;1.50;;
67749;SDS011;54550;48.838;8.828;2022-08-01T06:48:02;7.30;;;1.63;;
67749;SDS011;54550;48.838;8.828;2022-08-01T06:50:28;5.50;;;1.13;;
67749;SDS011;54550;48.838;8.828;2022-08-01T06:52:54;8.40;;;2.63;;
67749;SDS011;54550;48.838;8.828;2022-08-01T06:55:19;7.90;;;1.57;;
67749;SDS011;54550;48.838;8.828;2022-08-01T06:57:46;10.10;;;1.60;;
67749;SDS011;54550;48.838;8.828;2022-08-01T07:00:12;1.60;;;1.23;;
67749;SDS011;54550;48.838;8.828;2022-08-01T07:02:38;2.47;;;1.73;;
67749;SDS011;54550;48.838;8.828;2022-08-01T07:05:04;2.77;;;1.60;;
67749;SDS011;54550;48.838;8.828;2022-08-01T07:07:30;4.00;;;1.70;;
67749;SDS011;54550;48.838;8.828;2022-08-01T07:09:56;1.50;;;1.33;;
67749;SDS011;54550;48.838;8.828;2022-08-01T07:12:21;1.73;;;1.37;;
67749;SDS011;54550;48.838;8.828;2022-08-01T07:14:47;2.47;;;1.40;;
67749;SDS011;54550;48.838;8.828;2022-08-01T07:17:13;2.03;;;1.13;;
67749;SDS011;54550;48.838;8.828;2022-08-01T07:19:38;1.60;;;1.20;;
67749;SDS011;54550;48.838;8.828;2022-08-01T07:22:04;3.60;;;1.40;;
67749;SDS011;54550;48.838;8.828;2022-08-01T07:24:29;1.97;;;1.33;;
67749;SDS011;54550;48.838;8.828;2022-08-01T07:26:56;2.03;;;1.40;;
67749;SDS011;54550;48.838;8.828;2022-08-01T07:29:23;2.10;;;1.90;;
67749;SDS011;54550;48.838;8.828;2022-08-01T07:31:50;1.50;;;1.30;;
67749;SDS011;54550;48.838;8.828;2022-08-01T07:34:16;2.60;;;1.30;;
67749;SDS011;54550;48.838;8.828;2022-08-01T07:36:41;2.30;;;1.70;;
67749;SDS011;54550;48.838;8.828;2022-08-01T07:39:07;6.80;;;1.30;;
67749;SDS011;54550;48.838;8.828;2022-08-01T07:41:32;1.73;;;1.17;;
67749;SDS011;54550;48.838;8.828;2022-08-01T07:43:58;1.53;;;1.30;;
67749;SDS011;54550;48.838;8.828;2022-08-01T07:46:24;1.87;;;1.67;;
67749;SDS011;54550;48.838;8.828;2022-08-01T07:48:49;5.40;;;1.33;;
67749;SDS011;54550;48.838;8.828;2022-08-01T07:51:15;3.53;;;1.40;;
67749;SDS011;54550;48.838;8.828;2022-08-01T07:53:40;1.30;;;1.17;;
67749;SDS011;54550;48.838;8.828;2022-08-01T07:56:06;3.40;;;1.63;;
67749;SDS011;54550;48.838;8.828;2022-08-01T07:58:32;3.30;;;1.80;;
67749;SDS011;54550;48.838;8.828;2022-08-01T08:00:58;4.30;;;1.20;;
67749;SDS011;54550;48.838;8.828;2022-08-01T08:03:23;2.47;;;2.27;;
67749;SDS011;54550;48.838;8.828;2022-08-01T08:05:49;3.23;;;1.70;;
67749;SDS011;54550;48.838;8.828;2022-08-01T08:08:14;6.03;;;2.07;;
67749;SDS011;54550;48.838;8.828;2022-08-01T08:10:41;2.73;;;1.60;;
67749;SDS011;54550;48.838;8.828;2022-08-01T08:13:07;2.03;;;1.83;;
67749;SDS011;54550;48.838;8.828;2022-08-01T08:15:32;1.80;;;1.57;;
67749;SDS011;54550;48.838;8.828;2022-08-01T08:17:58;2.17;;;1.97;;
67749;SDS011;54550;48.838;8.828;2022-08-01T08:20:23;4.40;;;2.13;;
67749;SDS011;54550;48.838;8.828;2022-08-01T08:22:54;4.67;;;2.70;;
67749;SDS011;54550;48.838;8.828;2022-08-01T08:25:20;4.30;;;2.70;;
67749;SDS011;54550;48.838;8.828;2022-08-01T08:27:49;2.43;;;1.80;;
67749;SDS011;54550;48.838;8.828;2022-08-01T08:30:15;2.90;;;1.80;;
67749;SDS011;54550;48.838;8.828;2022-08-01T08:32:40;2.90;;;2.20;;
67749;SDS011;54550;48.838;8.828;2022-08-01T08:35:06;3.07;;;2.10;;
67749;SDS011;54550;48.838;8.828;2022-08-01T08:37:33;2.80;;;2.03;;
67749;SDS011;54550;48.838;8.828;2022-08-01T08:40:00;3.53;;;2.40;;
67749;SDS011;54550;48.838;8.828;2022-08-01T08:42:26;2.60;;;2.40;;
67749;SDS011;54550;48.838;8.828;2022-08-01T08:44:52;6.23;;;2.93;;
67749;SDS011;54550;48.838;8.828;2022-08-01T08:47:19;4.60;;;2.30;;
67749;SDS011;54550;48.838;8.828;2022-08-01T08:49:47;5.53;;;2.93;;
67749;SDS011;54550;48.838;8.828;2022-08-01T08:52:14;3.70;;;3.07;;
67749;SDS011;54550;48.838;8.828;2022-08-01T08:54:42;3.90;;;2.70;;
67749;SDS011;54550;48.838;8.828;2022-08-01T08:57:09;3.37;;;2.60;;
67749;SDS011;54550;48.838;8.828;2022-08-01T08:59:38;3.10;;;2.40;;
67749;SDS011;54550;48.838;8.828;2022-08-01T09:02:03;4.70;;;2.80;;
67749;SDS011;54550;48.838;8.828;2022-08-01T09:04:30;3.80;;;2.50;;
67749;SDS011;54550;48.838;8.828;2022-08-01T09:06:56;3.70;;;2.60;;
67749;SDS011;54550;48.838;8.828;2022-08-01T09:09:22;4.10;;;2.87;;
67749;SDS011;54550;48.838;8.828;2022-08-01T09:11:48;3.60;;;2.57;;
67749;SDS011;54550;48.838;8.828;2022-08-01T09:14:15;5.70;;;2.60;;
67749;SDS011;54550;48.838;8.828;2022-08-01T09:16:58;3.80;;;2.83;;
67749;SDS011;54550;48.838;8.828;2022-08-01T09:19:25;4.43;;;2.43;;
67749;SDS011;54550;48.838;8.828;2022-08-01T09:22:05;3.20;;;2.80;;
67749;SDS011;54550;48.838;8.828;2022-08-01T09:24:32;3.27;;;2.50;;
67749;SDS011;54550;48.838;8.828;2022-08-01T09:26:58;2.87;;;2.50;;
67749;SDS011;54550;48.838;8.828;2022-08-01T09:29:29;2.47;;;2.27;;
67749;SDS011;54550;48.838;8.828;2022-08-01T09:31:56;3.57;;;3.27;;
67749;SDS011;54550;48.838;8.828;2022-08-01T09:34:30;3.03;;;2.80;;
67749;SDS011;54550;48.838;8.828;2022-08-01T09:36:57;3.97;;;2.63;;
67749;SDS011;54550;48.838;8.828;2022-08-01T09:39:25;3.90;;;3.20;;
67749;SDS011;54550;48.838;8.828;2022-08-01T09:41:53;2.53;;;2.33;;
67749;SDS011;54550;48.838;8.828;2022-08-01T09:44:19;3.10;;;2.90;;
67749;SDS011;54550;48.838;8.828;2022-08-01T09:47:05;4.50;;;2.93;;
67749;SDS011;54550;48.838;8.828;2022-08-01T09:49:31;3.10;;;2.50;;
67749;SDS011;54550;48.838;8.828;2022-08-01T09:52:00;5.30;;;3.40;;
67749;SDS011;54550;48.838;8.828;2022-08-01T09:54:42;2.73;;;2.53;;
67749;SDS011;54550;48.838;8.828;2022-08-01T09:57:09;3.93;;;2.80;;
67749;SDS011;54550;48.838;8.828;2022-08-01T09:59:40;2.73;;;2.30;;
67749;SDS011;54550;48.838;8.828;2022-08-01T10:02:11;4.97;;;2.10;;
67749;SDS011;54550;48.838;8.828;2022-08-01T10:04:47;1.97;;;1.80;;
67749;SDS011;54550;48.838;8.828;2022-08-01T10:07:13;3.17;;;2.33;;
67749;SDS011;54550;48.838;8.828;2022-08-01T10:09:41;1.83;;;1.73;;
67749;SDS011;54550;48.838;8.828;2022-08-01T10:12:08;4.60;;;1.70;;
67749;SDS011;54550;48.838;8.828;2022-08-01T10:14:34;5.30;;;2.10;;
67749;SDS011;54550;48.838;8.828;2022-08-01T10:17:02;6.70;;;2.57;;
67749;SDS011;54550;48.838;8.828;2022-08-01T10:19:31;3.17;;;2.10;;
67749;SDS011;54550;48.838;8.828;2022-08-01T10:21:57;2.50;;;1.87;;
67749;SDS011;54550;48.838;8.828;2022-08-01T10:24:24;3.70;;;2.37;;
67749;SDS011;54550;48.838;8.828;2022-08-01T10:26:58;2.30;;;2.10;;
67749;SDS011;54550;48.838;8.828;2022-08-01T10:29:30;2.07;;;1.87;;
67749;SDS011;54550;48.838;8.828;2022-08-01T10:32:00;8.30;;;1.50;;
67749;SDS011;54550;48.838;8.828;2022-08-01T10:34:27;3.87;;;2.00;;
67749;SDS011;54550;48.838;8.828;2022-08-01T10:36:54;2.40;;;2.10;;
67749;SDS011;54550;48.838;8.828;2022-08-01T10:39:19;2.13;;;1.93;;
67749;SDS011;54550;48.838;8.828;2022-08-01T10:41:46;11.83;;;2.00;;
67749;SDS011;54550;48.838;8.828;2022-08-01T10:44:13;2.30;;;2.10;;
67749;SDS011;54550;48.838;8.828;2022-08-01T10:46:39;5.27;;;2.43;;
67749;SDS011;54550;48.838;8.828;2022-08-01T10:49:10;1.80;;;1.70;;
67749;SDS011;54550;48.838;8.828;2022-08-01T10:51:39;2.07;;;1.73;;
67749;SDS011;54550;48.838;8.828;2022-08-01T10:54:06;3.33;;;1.60;;
67749;SDS011;54550;48.838;8.828;2022-08-01T10:56:39;2.40;;;1.87;;
67749;SDS011;54550;48.838;8.828;2022-08-01T10:59:08;3.67;;;1.60;;
67749;SDS011;54550;48.838;8.828;2022-08-01T11:01:33;2.53;;;2.00;;
67749;SDS011;54550;48.838;8.828;2022-08-01T11:06:36;3.03;;;1.80;;
67749;SDS011;54550;48.838;8.828;2022-08-01T11:11:57;2.33;;;1.60;;
67749;SDS011;54550;48.838;8.828;2022-08-01T11:14:28;3.60;;;2.33;;
67749;SDS011;54550;48.838;8.828;2022-08-01T11:16:54;2.23;;;2.03;;
67749;SDS011;54550;48.838;8.828;2022-08-01T11:19:21;3.10;;;1.80;;
67749;SDS011;54550;48.838;8.828;2022-08-01T11:32:47;2.67;;;1.70;;
67749;SDS011;54550;48.838;8.828;2022-08-01T11:35:20;4.57;;;1.37;;
67749;SDS011;54550;48.838;8.828;2022-08-01T11:37:51;2.10;;;1.80;;
67749;SDS011;54550;48.838;8.828;2022-08-01T11:40:22;4.27;;;2.07;;
67749;SDS011;54550;48.838;8.828;2022-08-01T11:45:49;3.83;;;1.50;;
67749;SDS011;54550;48.838;8.828;2022-08-01T11:48:23;4.60;;;1.93;;
67749;SDS011;54550;48.838;8.828;2022-08-01T11:50:53;3.80;;;1.87;;
67749;SDS011;54550;48.838;8.828;2022-08-01T11:53:20;3.43;;;2.27;;
67749;SDS011;54550;48.838;8.828;2022-08-01T11:55:47;4.10;;;2.10;;
67749;SDS011;54550;48.838;8.828;2022-08-01T11:58:15;5.40;;;1.47;;
67749;SDS011;54550;48.838;8.828;2022-08-01T12:00:51;2.03;;;1.83;;
67749;SDS011;54550;48.838;8.828;2022-08-01T12:03:24;11.53;;;2.13;;
67749;SDS011;54550;48.838;8.828;2022-08-01T12:05:50;1.80;;;1.70;;
67749;SDS011;54550;48.838;8.828;2022-08-01T12:08:29;5.17;;;1.80;;
67749;SDS011;54550;48.838;8.828;2022-08-01T12:10:58;4.63;;;2.13;;
67749;SDS011;54550;48.838;8.828;2022-08-01T12:13:24;2.50;;;1.70;;
67749;SDS011;54550;48.838;8.828;2022-08-01T12:15:51;2.90;;;2.17;;
67749;SDS011;54550;48.838;8.828;2022-08-01T12:18:17;4.17;;;2.03;;
67749;SDS011;54550;48.838;8.828;2022-08-01T12:20:43;6.77;;;2.23;;
67749;SDS011;54550;48.838;8.828;2022-08-01T12:23:10;6.13;;;2.10;;
67749;SDS011;54550;48.838;8.828;2022-08-01T12:25:38;2.57;;;1.97;;
67749;SDS011;54550;48.838;8.828;2022-08-01T12:28:09;2.17;;;1.60;;
67749;SDS011;54550;48.838;8.828;2022-08-01T12:30:36;5.30;;;1.70;;
67749;SDS011;54550;48.838;8.828;2022-08-01T12:33:03;3.20;;;1.70;;
67749;SDS011;54550;48.838;8.828;2022-08-01T12:35:30;5.83;;;2.03;;
67749;SDS011;54550;48.838;8.828;2022-08-01T12:38:12;3.47;;;2.20;;
67749;SDS011;54550;48.838;8.828;2022-08-01T12:40:43;2.27;;;2.07;;
67749;SDS011;54550;48.838;8.828;2022-08-01T12:43:15;2.17;;;1.60;;
67749;SDS011;54550;48.838;8.828;2022-08-01T12:45:46;2.43;;;1.90;;
67749;SDS011;54550;48.838;8.828;2022-08-01T12:48:15;3.67;;;2.10;;
67749;SDS011;54550;48.838;8.828;2022-08-01T12:50:44;3.20;;;2.00;;
67749;SDS011;54550;48.838;8.828;2022-08-01T12:53:11;3.90;;;2.23;;
67749;SDS011;54550;48.838;8.828;2022-08-01T12:55:45;1.97;;;1.80;;
67749;SDS011;54550;48.838;8.828;2022-08-01T12:58:15;2.13;;;1.93;;
67749;SDS011;54550;48.838;8.828;2022-08-01T13:00:43;18.73;;;2.37;;
67749;SDS011;54550;48.838;8.828;2022-08-01T13:03:16;3.60;;;1.90;;
67749;SDS011;54550;48.838;8.828;2022-08-01T13:05:54;4.83;;;1.70;;
67749;SDS011;54550;48.838;8.828;2022-08-01T13:08:22;1.70;;;1.60;;
67749;SDS011;54550;48.838;8.828;2022-08-01T13:10:49;2.33;;;1.60;;
67749;SDS011;54550;48.838;8.828;2022-08-01T13:13:16;4.40;;;2.00;;
67749;SDS011;54550;48.838;8.828;2022-08-01T13:15:43;2.17;;;1.97;;
67749;SDS011;54550;48.838;8.828;2022-08-01T13:18:22;2.13;;;1.93;;
67749;SDS011;54550;48.838;8.828;2022-08-01T13:29:15;3.10;;;2.07;;
67749;SDS011;54550;48.838;8.828;2022-08-01T13:31:41;4.73;;;1.50;;
67749;SDS011;54550;48.838;8.828;2022-08-01T13:34:07;2.57;;;2.23;;
67749;SDS011;54550;48.838;8.828;2022-08-01T13:36:33;2.13;;;1.70;;
67749;SDS011;54550;48.838;8.828;2022-08-01T13:39:01;2.27;;;1.63;;
67749;SDS011;54550;48.838;8.828;2022-08-01T13:41:46;2.33;;;1.67;;
67749;SDS011;54550;48.838;8.828;2022-08-01T13:44:13;2.90;;;1.60;;
67749;SDS011;54550;48.838;8.828;2022-08-01T13:46:40;12.47;;;2.07;;
67749;SDS011;54550;48.838;8.828;2022-08-01T13:49:07;1.73;;;1.63;;
67749;SDS011;54550;48.838;8.828;2022-08-01T13:51:35;1.90;;;1.80;;
67749;SDS011;54550;48.838;8.828;2022-08-01T13:54:02;2.10;;;1.90;;
67749;SDS011;54550;48.838;8.828;2022-08-01T13:56:28;2.53;;;1.80;;
67749;SDS011;54550;48.838;8.828;2022-08-01T13:58:54;2.97;;;1.90;;
67749;SDS011;54550;48.838;8.828;2022-08-01T14:01:20;2.47;;;1.67;;
67749;SDS011;54550;48.838;8.828;2022-08-01T14:03:47;2.23;;;1.53;;
67749;SDS011;54550;48.838;8.828;2022-08-01T14:06:13;1.40;;;1.30;;
67749;SDS011;54550;48.838;8.828;2022-08-01T14:08:41;1.67;;;1.57;;
67749;SDS011;54550;48.838;8.828;2022-08-01T14:11:07;4.30;;;1.70;;
67749;SDS011;54550;48.838;8.828;2022-08-01T14:13:32;2.70;;;1.67;;
67749;SDS011;54550;48.838;8.828;2022-08-01T14:15:58;2.63;;;1.80;;
67749;SDS011;54550;48.838;8.828;2022-08-01T14:18:24;3.40;;;1.90;;
67749;SDS011;54550;48.838;8.828;2022-08-01T14:20:50;2.43;;;1.60;;
67749;SDS011;54550;48.838;8.828;2022-08-01T14:23:16;5.30;;;1.80;;
67749;SDS011;54550;48.838;8.828;2022-08-01T14:25:42;4.47;;;1.80;;
67749;SDS011;54550;48.838;8.828;2022-08-01T14:28:08;5.50;;;1.97;;
67749;SDS011;54550;48.838;8.828;2022-08-01T14:30:34;2.00;;;1.87;;
67749;SDS011;54550;48.838;8.828;2022-08-01T14:33:01;2.50;;;2.10;;
67749;SDS011;54550;48.838;8.828;2022-08-01T14:35:27;3.00;;;1.93;;
67749;SDS011;54550;48.838;8.828;2022-08-01T14:37:52;2.13;;;1.77;;
67749;SDS011;54550;48.838;8.828;2022-08-01T14:40:18;2.17;;;1.70;;
67749;SDS011;54550;48.838;8.828;2022-08-01T14:42:44;2.57;;;1.90;;
67749;SDS011;54550;48.838;8.828;2022-08-01T14:45:10;4.07;;;1.80;;
67749;SDS011;54550;48.838;8.828;2022-08-01T14:47:37;2.47;;;1.90;;
67749;SDS011;54550;48.838;8.828;2022-08-01T14:50:04;1.90;;;1.80;;
67749;SDS011;54550;48.838;8.828;2022-08-01T14:52:32;6.10;;;1.70;;
67749;SDS011;54550;48.838;8.828;2022-08-01T14:54:58;8.23;;;1.67;;
67749;SDS011;54550;48.838;8.828;2022-08-01T14:57:24;3.97;;;1.60;;
67749;SDS011;54550;48.838;8.828;2022-08-01T14:59:49;2.23;;;1.43;;
67749;SDS011;54550;48.838;8.828;2022-08-01T15:02:15;5.83;;;1.50;;
67749;SDS011;54550;48.838;8.828;2022-08-01T15:04:47;3.43;;;1.27;;
67749;SDS011;54550;48.838;8.828;2022-08-01T15:07:13;1.70;;;1.43;;
67749;SDS011;54550;48.838;8.828;2022-08-01T15:09:39;6.13;;;1.87;;
67749;SDS011;54550;48.838;8.828;2022-08-01T15:12:05;2.00;;;1.27;;
67749;SDS011;54550;48.838;8.828;2022-08-01T15:14:31;6.50;;;1.60;;
67749;SDS011;54550;48.838;8.828;2022-08-01T15:17:25;1.70;;;1.50;;
67749;SDS011;54550;48.838;8.828;2022-08-01T15:19:57;1.60;;;1.47;;
67749;SDS011;54550;48.838;8.828;2022-08-01T15:22:28;5.40;;;1.93;;
67749;SDS011;54550;48.838;8.828;2022-08-01T15:24:54;2.43;;;1.60;;